• Join FlightAware (Why Join?)
  • Login
  • US Flag 
Trick or treat! (Boo!!) 
02:45PM EDT


 

Airport Tracker/Info


-or-


 

Live Flight TrackerFlight Track Log ✈ BBA27 ✈ 22-Jul-2013 ✈ CYZD - CYZD

Flight Track Log - Related Links

Times and Time Zones

All times are in EDT time to prevent confusion due to time zone crossing. See the BBA27 flight status page for this flight to view local times or setup timezone preferences in your user account.

Time Position Orientation Groundspeed Altitude Reporting Facility
EDT Latitude Longitude Course Direction KTS MPH feet Rate Location/Type
06:12PM 43.7667 -79.5000 334° Northwest 200 230 1,500  Level Toronto Center
06:13PM 43.8167 -79.5333 334° Northwest 200 230 1,600 900 Climbing Toronto Center
06:14PM 43.8667 -79.5667 334° Northwest 210 242 3,300 2,040 Climbing Toronto Center
06:15PM 43.9333 -79.5667 360° North 230 265 5,700 2,580 Climbing Toronto Center
06:16PM 44.0000 -79.5667 360° North 240 276 8,500 2,580 Climbing Toronto Center
06:17PM 44.0667 -79.5333 20° North 250 288 10,900 1,740 Climbing Toronto Center
06:18PM 44.1500 -79.5000 16° North 270 311 12,000 540 Climbing Toronto Center
06:19PM 44.2333 -79.4500 23° Northeast 320 368 12,000  Level Toronto Center
06:20PM 44.3167 -79.4000 23° Northeast 340 391 12,000  Level Toronto Center
06:21PM 44.4000 -79.3833 North 340 391 12,000  Level Toronto Center
06:22PM 44.5000 -79.3333 20° North 340 391 12,000  Level Toronto Center
06:23PM 44.5833 -79.2833 23° Northeast 340 391 12,000  Level Toronto Center
06:24PM 44.6667 -79.2333 23° Northeast 330 380 12,000  Level Toronto Center
06:25PM 44.7667 -79.1833 20° North 340 391 12,000  Level Toronto Center
06:26PM 44.8333 -79.1333 28° Northeast 330 380 12,000  Level Toronto Center
06:27PM 44.9333 -79.1333 360° North 330 380 12,000  Level Toronto Center
06:28PM 44.9833 -79.2000 317° Northwest 310 357 12,000  Level Toronto Center
06:29PM 45.0667 -79.2333 344° North 290 334 12,000  Level Toronto Center
06:30PM 45.1333 -79.2000 19° North 250 288 12,000  Level Toronto Center
06:31PM 45.1833 -79.1833 13° North 230 265 12,000  Level Toronto Center
06:32PM 45.2500 -79.1667 10° North 230 265 12,000  Level Toronto Center
06:33PM 45.3000 -79.1167 35° Northeast 220 253 12,000  Level Toronto Center
06:34PM 45.3667 -79.0833 19° North 220 253 12,000  Level Toronto Center
06:35PM 45.4167 -79.0333 35° Northeast 220 253 12,000  Level Toronto Center
06:36PM 45.4833 -79.0167 10° North 220 253 12,000  Level Toronto Center
06:37PM 45.5333 -78.9833 25° Northeast 230 265 12,000  Level Toronto Center
06:38PM 45.6000 -78.9333 28° Northeast 230 265 12,000  Level Toronto Center
06:39PM 45.6500 -78.9000 25° Northeast 240 276 12,000  Level Toronto Center
06:40PM 45.7167 -78.8667 19° North 250 288 12,000  Level Toronto Center
06:41PM 45.7833 -78.8167 28° Northeast 260 299 12,000  Level Toronto Center
06:42PM 45.8167 -78.7167 64° Northeast 260 299 12,000  Level Toronto Center
06:43PM 45.8333 -78.6333 74° East 270 311 12,000  Level Toronto Center
06:44PM 45.7833 -78.5500 131° Southeast 250 288 12,000  Level Toronto Center
06:45PM 45.7167 -78.5500 180° South 240 276 12,000  Level Toronto Center
06:46PM 45.7000 -78.6500 257° West 230 265 12,000  Level Toronto Center
06:47PM 45.7500 -78.7000 325° Northwest 230 265 12,000  Level Toronto Center
06:48PM 45.8167 -78.7167 350° North 250 288 12,000  Level Toronto Center
06:49PM 45.8833 -78.7167 360° North 250 288 12,000  Level Toronto Center
06:50PM 45.9500 -78.7500 341° North 250 288 12,100 900 Climbing Toronto Center
06:51PM 46.0167 -78.7500 360° North 260 299 13,800 900 Climbing Toronto Center
06:52PM 46.1000 -78.7667 352° North 290 334 14,000 60 Climbing Toronto Center
06:53PM 46.1667 -78.7833 350° North 270 311 14,000  Level Toronto Center
06:54PM 46.2333 -78.7167 35° Northeast 250 288 14,000 -300 Level Toronto Center
06:55PM 46.2500 -78.6500 70° East 230 265 13,400 -900 Descending Toronto Center
06:56PM 46.2833 -78.5667 60° Northeast 190 219 12,300 240 Descending Toronto Center
06:57PM 46.3167 -78.5000 54° Northeast 220 253 13,900 300 Climbing Toronto Center
06:58PM 46.3333 -78.4167 74° East 200 230 13,000  Descending Toronto Center
06:59PM 46.3500 -78.3500 70° East 240 276 14,000  Climbing Toronto Center
07:00PM 46.3833 -78.2833 54° Northeast 220 253 13,100 -780 Descending Toronto Center
07:01PM 46.4167 -78.1833 64° Northeast 240 276 12,500 -600 Descending Toronto Center
07:02PM 46.4333 -78.0833 76° East 260 299 12,000 -300 Descending Toronto Center
07:03PM 46.3833 -78.0833 180° South 230 265 12,000  Level Toronto Center
07:04PM 46.3667 -78.1500 250° West 230 265 12,000  Level Toronto Center
07:05PM 46.3667 -78.2833 270° West 270 311 12,000  Level Toronto Center
07:06PM 46.3667 -78.4000 270° West 290 334 12,000  Level Toronto Center
07:07PM 46.3833 -78.5167 282° West 300 345 12,000  Level Toronto Center
07:08PM 46.3667 -78.6333 258° West 300 345 12,000 -180 Level Toronto Center
07:09PM 46.3500 -78.7667 260° West 300 345 11,700 -600 Descending Toronto Center
07:10PM 46.3333 -78.8833 258° West 300 345 10,800 -900 Descending Toronto Center
07:11PM 46.3167 -78.9500 250° West 250 288 9,900 -1,020 Descending Toronto Center
07:12PM 46.3000 -79.0833 260° West 260 299 8,800 -1,200 Descending Toronto Center
07:13PM 46.2833 -79.1667 254° West 260 299 7,600 -1,140 Descending Toronto Center
07:14PM 46.2667 -79.2667 256° West 250 288 6,600 -1,140 Descending Toronto Center
07:15PM 46.2333 -79.3667 244° Southwest 230 265 5,400 -840 Descending Toronto Center
07:16PM 46.2167 -79.4333 250° West 210 242 5,000 -240 Descending Toronto Center
07:17PM 46.2000 -79.5167 254° West 200 230 5,000  Level Toronto Center
07:18PM 46.2167 -79.5667 296° West 210 242 5,000 -480 Level Toronto Center
07:19PM 46.2833 -79.5833 350° North 200 230 4,100 -960 Descending Toronto Center
07:20PM 46.3167 -79.5333 46° Northeast 170 196 3,100 -960 Descending Toronto Center
07:21PM 46.3167 -79.4833 90° East 140 161 2,200 -840 Descending Toronto Center
07:22PM 46.3333 -79.4333 64° Northeast 140 161 1,500 360 Descending Toronto Center
07:23PM 46.3667 -79.3833 46° Northeast 160 184 3,000 1,200 Climbing Toronto Center
07:24PM 46.4167 -79.3833 360° North 210 242 4,000 480 Climbing Toronto Center
07:25PM 46.4000 -79.4667 254° West 200 230 4,000  Level Toronto Center
07:26PM 46.3833 -79.5333 250° West 200 230 4,000  Level Toronto Center
07:27PM 46.3667 -79.6000 250° West 190 219 4,000  Level Toronto Center
07:28PM 46.3333 -79.6833 240° Southwest 200 230 4,000  Level Toronto Center
07:29PM 46.2833 -79.6833 180° South 190 219 4,000 -180 Level Toronto Center
07:30PM 46.2833 -79.5833 90° East 200 230 3,700 -600 Descending Toronto Center
07:31PM 46.3167 -79.5333 46° Northeast 180 207 2,800 -900 Descending Toronto Center
07:32PM 46.3333 -79.4833 64° Northeast 150 173 2,000 -660 Descending Toronto Center
07:33PM 46.3500 -79.4333 64° Northeast 140 161 1,500 900 Descending Toronto Center
07:34PM 46.3667 -79.3667 70° East 190 219 3,800 1,200 Climbing Toronto Center
07:35PM 46.4333 -79.3667 360° North 230 265 4,000 60 Climbing Toronto Center
07:36PM 46.4333 -79.4333 270° West 210 242 4,000  Level Toronto Center
07:37PM 46.4167 -79.5167 254° West 210 242 4,000  Level Toronto Center
07:38PM 46.3833 -79.5833 234° Southwest 200 230 4,000  Level Toronto Center
07:39PM 46.3500 -79.6500 234° Southwest 200 230 4,000  Level Toronto Center
07:40PM 46.3000 -79.6833 205° Southwest 210 242 4,000 -60 Level Toronto Center
07:41PM 46.2833 -79.6000 106° East 210 242 3,900 -600 Descending Toronto Center
07:42PM 46.3167 -79.5333 54° Northeast 210 242 2,900 -1,020 Descending Toronto Center
07:43PM 46.3333 -79.4667 70° East 180 207 1,900 -840 Descending Toronto Center
07:44PM 46.3500 -79.4167 64° Northeast 150 173 1,300 900 Descending Toronto Center
07:45PM 46.3667 -79.3500 70° East 190 219 3,700 2,520 Climbing Toronto Center
07:46PM 46.4000 -79.2667 60° Northeast 230 265 6,400 3,000 Climbing Toronto Center
07:47PM 46.4333 -79.1667 64° Northeast 240 276 9,700 2,940 Climbing Toronto Center
07:48PM 46.4667 -79.1000 54° Northeast 240 276 12,300 2,580 Climbing Toronto Center
07:49PM 46.4833 -79.0000 76° East 250 288 14,900 2,400 Climbing Toronto Center
07:50PM 46.5167 -78.9000 64° Northeast 250 288 17,100 2,160 Climbing Toronto Center
07:51PM 46.5000 -78.8167 106° East 250 288 19,300 1,860 Climbing Toronto Center
07:52PM 46.4833 -78.7167 104° East 260 299 20,900 1,680 Climbing Toronto Center
07:53PM 46.4500 -78.5833 110° East 270 311 22,700 1,620 Climbing Toronto Center
07:54PM 46.4333 -78.5000 106° East 270 311 24,200 1,140 Climbing Toronto Center
07:55PM 46.4000 -78.4000 116° Southeast 280 322 25,000 360 Climbing Toronto Center
07:56PM 46.3833 -78.2500 99° East 320 368 25,000  Level Toronto Center
07:57PM 46.3667 -78.1167 100° East 360 414 25,000  Level Toronto Center
07:58PM 46.3333 -77.9667 108° East 380 437 25,000  Level Toronto Center
07:59PM 46.3000 -77.8167 108° East 380 437 25,000  Level Toronto Center
08:00PM 46.2667 -77.6833 110° East 380 437 25,000  Level Toronto Center
08:01PM 46.1833 -77.6833 180° South 330 380 25,000  Level Toronto Center
08:02PM 46.1500 -77.8000 248° West 320 368 25,000  Level Toronto Center
08:03PM 46.1333 -77.9167 258° West 320 368 25,000  Level Toronto Center
08:04PM 46.1000 -78.0500 250° West 320 368 25,000  Level Toronto Center
08:05PM 46.0167 -78.1000 203° Southwest 320 368 25,000  Level Toronto Center
08:06PM 45.9333 -78.1167 188° South 330 380 25,000  Level Toronto Center
08:07PM 45.8333 -78.1667 199° South 330 380 25,000  Level Toronto Center
08:08PM 45.7500 -78.2167 203° Southwest 340 391 25,000  Level Toronto Center
08:09PM 45.6500 -78.2500 193° South 340 391 25,000  Level Toronto Center
08:10PM 45.5667 -78.3000 203° Southwest 340 391 25,000  Level Toronto Center
08:11PM 45.4833 -78.3167 188° South 330 380 25,000  Level Toronto Center
08:12PM 45.4167 -78.4167 226° Southwest 320 368 25,000  Level Toronto Center
08:13PM 45.3500 -78.5000 221° Southwest 330 380 25,000  Level Toronto Center
08:14PM 45.2667 -78.5167 188° South 340 391 25,000  Level Toronto Center
08:15PM 45.1667 -78.5667 199° South 340 391 25,000  Level Toronto Center
08:16PM 45.0833 -78.6000 196° South 340 391 25,000 -300 Level Toronto Center
08:17PM 45.0000 -78.6500 203° Southwest 340 391 24,500 -780 Descending Toronto Center
08:18PM 44.9000 -78.6833 193° South 340 391 23,500 -1,980 Descending Toronto Center
08:19PM 44.8167 -78.7333 203° Southwest 350 403 20,600 -3,120 Descending Toronto Center
08:20PM 44.7167 -78.7833 200° South 360 414 17,300 -1,920 Descending Toronto Center
08:21PM 44.6333 -78.8333 203° Southwest 340 391 16,800 -1,380 Descending Toronto Center
08:22PM 44.5667 -78.8667 200° South 280 322 14,600 -2,220 Descending Toronto Center
08:23PM 44.4833 -78.9000 196° South 270 311 12,500 -2,040 Descending Toronto Center
08:24PM 44.4167 -78.9333 200° South 260 299 10,600 -2,040 Descending Toronto Center
08:25PM 44.3500 -78.9833 208° Southwest 250 288 8,500 -1,980 Descending Toronto Center
08:26PM 44.3000 -79.0000 193° South 240 276 6,700 -1,740 Descending Toronto Center
08:27PM 44.2667 -79.0667 235° Southwest 230 265 5,100 -900 Descending Toronto Center
08:28PM 44.2333 -79.1500 241° Southwest 230 265 5,000 -60 Descending Toronto Center
08:29PM 44.2000 -79.2167 235° Southwest 230 265 5,000 -120 Level Toronto Center
08:30PM 44.1500 -79.3000 230° Southwest 230 265 4,800 -540 Descending Toronto Center
08:31PM 44.1167 -79.3833 241° Southwest 240 276 4,000 -900 Descending Toronto Center
08:32PM 44.0833 -79.4500 235° Southwest 220 253 3,100 -540 Descending Toronto Center
08:33PM 44.0667 -79.5167 251° West 210 242 3,000 -60 Descending Toronto Center
08:34PM 44.0333 -79.5833 235° Southwest 210 242 3,000  Level Toronto Center
08:35PM 43.9667 -79.6167 200° South 210 242 3,000 -120 Level Toronto Center
08:36PM 43.9167 -79.5833 154° Southeast 210 242 2,800 -420 Descending Toronto Center
08:37PM 43.8667 -79.5667 166° South 190 219 2,200 -600 Descending Toronto Center
08:38PM 43.8167 -79.5167 144° Southeast 190 219 1,700 -360 Descending Toronto Center
08:39PM 43.7833 -79.5000 160° South 150 173 1,600 -300 Descending Toronto Center
08:40PM 43.7500 -79.4667 144° Southeast 110 127 1,200 -480 Descending Toronto Center
08:41PM 43.7333 -79.4500 144° Southeast 110 127 700 -540 Descending Toronto Center